createdAt,value
2022-10-18T00:00:22.371Z,4.88
2022-10-18T00:02:49.533Z,6.95
2022-10-18T00:05:16.674Z,7.57
2022-10-18T00:07:43.851Z,7.40
2022-10-18T00:10:11.483Z,5.32
2022-10-18T00:12:38.698Z,7.63
2022-10-18T00:15:06.964Z,6.35
2022-10-18T00:17:37.760Z,5.82
2022-10-18T00:20:05.563Z,6.75
2022-10-18T00:22:34.605Z,6.82
2022-10-18T00:25:01.771Z,4.93
2022-10-18T00:27:31.790Z,6.95
2022-10-18T00:29:58.932Z,6.78
2022-10-18T00:32:26.456Z,4.43
2022-10-18T00:34:53.608Z,6.80
2022-10-18T00:37:20.862Z,5.40
2022-10-18T00:39:48.041Z,5.55
2022-10-18T00:42:19.517Z,8.63
2022-10-18T00:44:46.642Z,7.30
2022-10-18T00:47:15.223Z,7.60
2022-10-18T00:49:47.728Z,7.32
2022-10-18T00:52:20.339Z,6.93
2022-10-18T00:54:48.204Z,5.72
2022-10-18T00:57:15.871Z,7.53
2022-10-18T00:59:43.744Z,6.85
2022-10-18T01:02:11.245Z,6.10
2022-10-18T01:04:38.490Z,9.82
2022-10-18T01:07:08.818Z,6.97
2022-10-18T01:09:39.014Z,6.38
2022-10-18T01:12:28.880Z,8.70
2022-10-18T01:15:05.102Z,7.82
2022-10-18T01:17:47.238Z,6.82
2022-10-18T01:20:29.431Z,7.30
2022-10-18T01:22:59.845Z,5.47
2022-10-18T01:25:32.858Z,11.73
2022-10-18T01:28:09.108Z,7.70
2022-10-18T01:30:42.017Z,4.70
2022-10-18T01:33:18.324Z,5.25
2022-10-18T01:35:49.955Z,9.20
2022-10-18T01:38:18.167Z,6.38
2022-10-18T01:40:47.238Z,5.07
2022-10-18T01:43:15.461Z,5.22
2022-10-18T01:45:42.767Z,7.15
2022-10-18T01:48:11.402Z,8.50
2022-10-18T01:50:38.581Z,5.63
2022-10-18T01:53:05.966Z,7.65
2022-10-18T01:55:39.909Z,5.18
2022-10-18T01:58:14.249Z,5.10
2022-10-18T02:00:42.464Z,7.53
2022-10-18T02:03:12.369Z,7.55
2022-10-18T02:05:40.308Z,7.32
2022-10-18T02:08:22.087Z,5.03
2022-10-18T02:10:51.882Z,6.50
2022-10-18T02:13:21.299Z,7.13
2022-10-18T02:15:50.627Z,6.70
2022-10-18T02:18:25.513Z,5.43
2022-10-18T02:20:52.628Z,6.07
2022-10-18T02:23:22.070Z,8.25
2022-10-18T02:25:49.368Z,6.68
2022-10-18T02:28:16.815Z,5.35
2022-10-18T02:30:58.584Z,6.20
2022-10-18T02:33:31.357Z,8.27
2022-10-18T02:36:01.803Z,9.52
2022-10-18T02:38:29.571Z,7.70
2022-10-18T02:40:56.757Z,9.07
2022-10-18T02:43:24.999Z,8.48
2022-10-18T02:45:52.244Z,8.15
2022-10-18T02:48:19.483Z,10.80
2022-10-18T02:50:46.606Z,6.63
2022-10-18T02:53:13.793Z,10.90
2022-10-18T02:55:40.953Z,11.95
2022-10-18T02:58:08.078Z,11.85
2022-10-18T03:00:35.226Z,7.75
2022-10-18T03:03:02.452Z,6.38
2022-10-18T03:05:29.603Z,9.40
2022-10-18T03:07:59.821Z,6.95
2022-10-18T03:10:28.178Z,11.35
2022-10-18T03:12:55.319Z,8.48
2022-10-18T03:15:22.425Z,10.52
2022-10-18T03:17:49.584Z,8.20
2022-10-18T03:20:16.794Z,15.65
2022-10-18T03:22:43.906Z,9.57
2022-10-18T03:25:11.510Z,11.00
2022-10-18T03:27:38.632Z,11.75
2022-10-18T03:30:05.938Z,8.48
2022-10-18T03:32:33.347Z,9.80
2022-10-18T03:35:00.681Z,10.45
2022-10-18T03:37:27.881Z,12.48
2022-10-18T03:39:55.056Z,10.90
2022-10-18T03:42:22.268Z,10.68
2022-10-18T03:44:49.431Z,10.23
2022-10-18T03:47:16.622Z,9.75
2022-10-18T03:49:43.851Z,11.38
2022-10-18T03:52:11.046Z,14.77
2022-10-18T03:54:38.142Z,12.43
2022-10-18T03:57:05.292Z,18.55
2022-10-18T03:59:32.451Z,12.98
2022-10-18T04:01:59.676Z,16.95
2022-10-18T04:04:28.456Z,12.85
2022-10-18T04:06:55.664Z,13.20
2022-10-18T04:09:22.779Z,14.60
2022-10-18T04:11:53.072Z,14.25
2022-10-18T04:14:21.401Z,19.00
2022-10-18T04:16:48.624Z,11.77
2022-10-18T04:19:15.828Z,14.88
2022-10-18T04:21:44.249Z,13.65
2022-10-18T04:24:11.549Z,18.25
2022-10-18T04:26:38.710Z,18.67
2022-10-18T04:29:05.971Z,15.75
2022-10-18T04:31:33.174Z,18.92
2022-10-18T04:34:00.322Z,18.58
2022-10-18T04:36:27.411Z,17.75
2022-10-18T04:38:54.543Z,19.38
2022-10-18T04:41:21.735Z,18.48
2022-10-18T04:43:49.515Z,21.33
2022-10-18T04:46:16.701Z,14.38
2022-10-18T04:48:43.936Z,21.30
2022-10-18T04:51:11.089Z,20.65
2022-10-18T04:53:38.288Z,18.52
2022-10-18T04:56:05.538Z,27.00
2022-10-18T04:58:33.243Z,19.63
2022-10-18T05:01:00.386Z,20.45
2022-10-18T05:03:27.526Z,19.48
2022-10-18T05:06:01.727Z,18.58
2022-10-18T05:08:29.596Z,22.77
2022-10-18T05:10:56.932Z,21.23
2022-10-18T05:13:24.162Z,18.13
2022-10-18T05:15:51.373Z,18.13
2022-10-18T05:18:18.860Z,16.35
2022-10-18T05:20:46.752Z,16.40
2022-10-18T05:23:13.936Z,18.88
2022-10-18T05:25:43.972Z,15.55
2022-10-18T05:28:34.738Z,23.90
2022-10-18T05:31:02.647Z,18.60
2022-10-18T05:33:30.384Z,41.47
2022-10-18T05:35:57.781Z,22.17
2022-10-18T05:38:25.076Z,18.92
2022-10-18T05:40:52.417Z,23.00
2022-10-18T05:43:19.761Z,18.13
2022-10-18T05:45:52.665Z,21.42
2022-10-18T05:48:19.955Z,17.45
2022-10-18T05:50:47.132Z,22.13
2022-10-18T05:53:35.298Z,18.77
2022-10-18T05:56:04.074Z,18.48
2022-10-18T05:58:30.922Z,20.98
2022-10-18T06:01:01.966Z,20.98
2022-10-18T06:03:30.870Z,21.10
2022-10-18T06:06:07.328Z,18.67
2022-10-18T06:08:34.463Z,21.27
2022-10-18T06:11:10.157Z,25.70
2022-10-18T06:13:55.155Z,107.35
2022-10-18T06:16:22.929Z,24.88
2022-10-18T06:18:51.686Z,17.75
2022-10-18T06:21:19.536Z,19.05
2022-10-18T06:23:51.110Z,24.65
2022-10-18T06:26:17.927Z,22.08
2022-10-18T06:28:44.861Z,20.83
2022-10-18T06:31:12.908Z,27.17
2022-10-18T06:33:39.722Z,24.52
2022-10-18T06:36:10.742Z,21.88
2022-10-18T06:38:37.547Z,22.52
2022-10-18T06:41:05.752Z,24.70
2022-10-18T06:43:32.657Z,19.67
2022-10-18T06:46:01.900Z,23.67
2022-10-18T06:48:28.896Z,28.23
2022-10-18T06:50:58.306Z,26.45
2022-10-18T06:53:26.449Z,22.52
2022-10-18T06:55:58.586Z,24.05
2022-10-18T06:58:25.356Z,28.60
2022-10-18T07:00:52.181Z,19.75
2022-10-18T07:03:19.148Z,27.08
2022-10-18T07:05:45.948Z,32.92
2022-10-18T07:08:12.733Z,27.55
2022-10-18T07:10:39.558Z,26.40
2022-10-18T07:13:32.580Z,28.13
2022-10-18T07:16:06.011Z,31.85
2022-10-18T07:18:37.620Z,26.60
2022-10-18T07:21:06.351Z,37.13
2022-10-18T07:23:37.964Z,37.15
2022-10-18T07:26:12.534Z,29.90
2022-10-18T07:28:39.525Z,31.67
2022-10-18T07:31:08.611Z,46.85
2022-10-18T07:33:37.888Z,39.42
2022-10-18T07:36:07.719Z,43.67
2022-10-18T07:38:35.183Z,39.78
2022-10-18T07:41:03.847Z,34.83
2022-10-18T07:43:30.956Z,36.70
2022-10-18T07:46:00.511Z,36.47
2022-10-18T07:48:27.940Z,34.95
2022-10-18T07:50:55.079Z,33.80
2022-10-18T07:53:21.835Z,35.67
2022-10-18T07:55:48.673Z,45.35
2022-10-18T07:58:15.461Z,47.83
2022-10-18T08:00:42.279Z,48.28
2022-10-18T08:03:09.080Z,52.50
2022-10-18T08:05:35.873Z,46.38
2022-10-18T08:08:05.668Z,47.28
2022-10-18T08:10:35.804Z,39.63
2022-10-18T08:13:05.654Z,56.65
2022-10-18T08:15:32.436Z,55.13
2022-10-18T08:17:59.216Z,54.90
2022-10-18T08:20:30.804Z,51.28
2022-10-18T08:23:00.404Z,57.60
2022-10-18T08:25:28.426Z,58.65
2022-10-18T08:27:55.339Z,62.42
2022-10-18T08:30:23.943Z,63.88
2022-10-18T08:32:50.884Z,63.45
2022-10-18T08:35:18.641Z,84.57
2022-10-18T08:37:45.501Z,72.53
2022-10-18T08:40:15.987Z,76.13
2022-10-18T08:43:12.910Z,69.82
2022-10-18T08:45:43.219Z,126.53
2022-10-18T08:48:34.997Z,116.15
2022-10-18T08:51:05.164Z,124.00
2022-10-18T08:53:49.168Z,99.97
2022-10-18T08:56:21.535Z,93.78
2022-10-18T08:58:51.085Z,88.40
2022-10-18T09:01:45.575Z,79.57
2022-10-18T09:04:24.419Z,86.03
2022-10-18T09:07:31.526Z,72.63
2022-10-18T09:10:18.368Z,85.68
2022-10-18T09:12:57.094Z,75.30
2022-10-18T09:15:38.874Z,68.35
2022-10-18T09:18:24.507Z,63.42
2022-10-18T09:20:59.899Z,55.40
2022-10-18T09:23:44.042Z,55.53
2022-10-18T09:26:14.246Z,52.95
2022-10-18T09:28:46.955Z,51.47
2022-10-18T09:31:52.656Z,49.83
2022-10-18T09:34:37.766Z,50.95
2022-10-18T09:37:10.662Z,61.70
2022-10-18T09:39:39.068Z,68.55
2022-10-18T09:42:16.544Z,74.32
2022-10-18T09:44:49.384Z,65.88
2022-10-18T09:47:26.497Z,62.72
2022-10-18T09:50:15.525Z,53.08
2022-10-18T09:52:53.030Z,48.70
2022-10-18T09:55:25.076Z,51.65
2022-10-18T09:57:56.482Z,47.20
2022-10-18T10:00:29.624Z,45.72
2022-10-18T10:02:57.018Z,41.08
2022-10-18T10:05:23.765Z,47.85
2022-10-18T10:07:59.499Z,34.03
2022-10-18T10:10:30.666Z,34.90
2022-10-18T10:13:22.768Z,32.10
2022-10-18T10:16:01.035Z,33.30
2022-10-18T10:18:30.209Z,41.42
2022-10-18T10:21:05.638Z,35.03
2022-10-18T10:23:50.441Z,46.08
2022-10-18T10:26:34.148Z,42.05
2022-10-18T10:29:01.341Z,35.63
2022-10-18T10:31:32.687Z,78.47
2022-10-18T10:34:02.545Z,47.38
2022-10-18T10:36:30.544Z,32.80
2022-10-18T10:39:16.197Z,37.00
2022-10-18T10:41:45.477Z,34.53
2022-10-18T10:44:18.191Z,38.78
2022-10-18T10:46:45.697Z,35.13
2022-10-18T10:49:41.232Z,25.70
2022-10-18T10:52:27.231Z,27.70
2022-10-18T10:57:47.391Z,26.30
2022-10-18T11:00:52.849Z,24.25
2022-10-18T11:03:29.243Z,31.58
2022-10-18T11:05:58.778Z,24.00
2022-10-18T11:08:35.912Z,21.77
2022-10-18T11:11:23.179Z,24.73
2022-10-18T11:14:07.243Z,21.23
2022-10-18T11:16:49.743Z,17.45
2022-10-18T11:19:30.571Z,26.52
2022-10-18T11:21:58.139Z,21.98
2022-10-18T11:24:25.356Z,24.20
2022-10-18T11:27:10.774Z,23.45
2022-10-18T11:29:45.662Z,28.33
2022-10-18T11:32:18.921Z,22.73
2022-10-18T11:34:46.045Z,15.75
2022-10-18T11:37:36.070Z,18.05
2022-10-18T11:40:05.529Z,16.98
2022-10-18T11:42:39.685Z,15.55
2022-10-18T11:45:07.170Z,13.15
2022-10-18T11:47:34.618Z,13.00
2022-10-18T11:50:07.837Z,11.00
2022-10-18T11:52:38.099Z,12.43
2022-10-18T11:55:15.948Z,16.95
2022-10-18T11:58:01.294Z,11.05
2022-10-18T12:01:03.505Z,9.98
2022-10-18T12:03:39.022Z,9.30
2022-10-18T12:06:16.747Z,23.48
2022-10-18T12:08:49.168Z,16.25
2022-10-18T12:11:20.703Z,13.23
2022-10-18T12:13:52.335Z,14.27
2022-10-18T12:16:38.958Z,25.88
2022-10-18T12:19:36.857Z,7.97
2022-10-18T12:22:14.859Z,11.43
2022-10-18T12:24:42.981Z,13.30
2022-10-18T12:27:12.489Z,11.57
2022-10-18T12:29:39.733Z,12.77
2022-10-18T12:32:11.282Z,10.70
2022-10-18T12:34:53.390Z,10.27
2022-10-18T12:37:20.588Z,10.90
2022-10-18T12:42:44.822Z,13.10
2022-10-18T12:45:33.231Z,11.15
2022-10-18T12:48:05.843Z,12.55
2022-10-18T12:50:35.830Z,12.95
2022-10-18T12:53:18.150Z,18.58
2022-10-18T12:55:47.109Z,10.48
2022-10-18T12:58:14.727Z,13.75
2022-10-18T13:00:41.865Z,15.38
2022-10-18T13:03:18.154Z,14.32
2022-10-18T13:05:53.492Z,16.30
2022-10-18T13:08:31.595Z,16.13
2022-10-18T13:11:10.837Z,13.93
2022-10-18T13:13:40.654Z,14.63
2022-10-18T13:16:15.609Z,13.35
2022-10-18T13:18:53.347Z,11.93
2022-10-18T13:21:29.866Z,13.60
2022-10-18T13:24:16.095Z,7.60
2022-10-18T13:26:59.271Z,7.80
2022-10-18T13:29:54.783Z,9.07
2022-10-18T13:32:28.871Z,8.10
2022-10-18T13:34:56.113Z,13.98
2022-10-18T13:37:26.643Z,8.48
2022-10-18T13:40:13.781Z,11.02
2022-10-18T13:42:40.644Z,6.65
2022-10-18T13:45:32.217Z,12.48
2022-10-18T13:48:31.307Z,9.60
2022-10-18T13:51:11.326Z,7.78
2022-10-18T13:54:06.531Z,7.22
2022-10-18T13:57:12.184Z,4.60
2022-10-18T13:59:57.251Z,7.43
2022-10-18T14:02:51.454Z,6.32
2022-10-18T14:05:38.046Z,8.60
2022-10-18T14:08:20.558Z,9.30
2022-10-18T14:11:01.335Z,7.20
2022-10-18T14:13:32.235Z,8.13
2022-10-18T14:16:04.854Z,8.10
2022-10-18T14:18:33.787Z,11.57
2022-10-18T14:21:13.394Z,9.20
2022-10-18T14:23:44.681Z,7.20
2022-10-18T14:26:16.421Z,8.23
2022-10-18T14:29:00.335Z,6.22
2022-10-18T14:31:27.864Z,5.00
2022-10-18T14:33:57.890Z,9.20
2022-10-18T14:36:26.474Z,13.75
2022-10-18T14:39:05.342Z,7.47
2022-10-18T14:41:33.603Z,7.97
2022-10-18T14:44:13.000Z,10.13
2022-10-18T14:46:47.570Z,11.50
2022-10-18T14:49:15.510Z,8.88
2022-10-18T14:51:43.944Z,10.82
2022-10-18T14:56:48.263Z,10.88
2022-10-18T14:59:22.872Z,10.10
2022-10-18T15:01:56.082Z,9.75
2022-10-18T15:04:27.786Z,14.38
2022-10-18T15:06:56.143Z,11.07
2022-10-18T15:09:24.588Z,8.20
2022-10-18T15:11:54.752Z,12.38
2022-10-18T15:14:22.595Z,10.30
2022-10-18T15:16:51.249Z,6.80
2022-10-18T15:19:18.395Z,6.13
2022-10-18T15:25:03.729Z,5.40
2022-10-18T15:27:32.733Z,8.85
2022-10-18T15:30:06.093Z,5.45
2022-10-18T15:32:33.674Z,7.40
2022-10-18T15:35:08.541Z,4.65
2022-10-18T15:37:42.893Z,11.60
2022-10-18T15:40:36.277Z,7.30
2022-10-18T15:43:06.061Z,8.02
2022-10-18T15:45:35.184Z,12.20
2022-10-18T15:48:12.100Z,7.53
2022-10-18T15:50:44.246Z,8.60
2022-10-18T15:53:23.916Z,8.70
2022-10-18T15:55:52.522Z,6.60
2022-10-18T15:58:24.240Z,7.32
2022-10-18T16:00:52.134Z,7.53
2022-10-18T16:03:21.729Z,5.25
2022-10-18T16:05:48.982Z,12.38
2022-10-18T16:08:20.034Z,12.10
2022-10-18T16:10:47.174Z,10.18
2022-10-18T16:13:14.399Z,7.07
2022-10-18T16:15:41.622Z,11.55
2022-10-18T16:18:10.732Z,14.15
2022-10-18T16:20:38.068Z,11.77
2022-10-18T16:23:11.031Z,8.10
2022-10-18T16:25:38.164Z,7.07
2022-10-18T16:28:05.449Z,7.65
2022-10-18T16:30:37.912Z,12.65
2022-10-18T16:33:07.497Z,9.23
2022-10-18T16:35:35.757Z,11.45
2022-10-18T16:38:03.177Z,8.38
2022-10-18T16:40:30.379Z,9.85
2022-10-18T16:42:57.642Z,11.15
2022-10-18T16:45:24.867Z,7.70
2022-10-18T16:47:52.107Z,6.95
2022-10-18T16:50:21.872Z,8.60
2022-10-18T16:52:49.072Z,10.20
2022-10-18T16:55:21.318Z,10.02
2022-10-18T16:57:50.310Z,8.05
2022-10-18T17:00:21.479Z,11.07
2022-10-18T17:02:49.333Z,8.70
2022-10-18T17:05:17.346Z,17.23
2022-10-18T17:07:45.627Z,14.00
2022-10-18T17:10:19.243Z,9.48
2022-10-18T17:12:46.623Z,10.60
2022-10-18T17:15:13.650Z,9.13
2022-10-18T17:17:40.529Z,11.68
2022-10-18T17:20:08.368Z,6.82
2022-10-18T17:22:35.356Z,8.55
2022-10-18T17:25:02.194Z,7.90
2022-10-18T17:27:29.001Z,11.43
2022-10-18T17:29:55.930Z,8.48
2022-10-18T17:32:22.713Z,8.52
2022-10-18T17:34:49.759Z,16.27
2022-10-18T17:37:16.682Z,11.65
2022-10-18T17:39:43.468Z,13.25
2022-10-18T17:42:10.366Z,14.25
2022-10-18T17:44:37.272Z,35.53
2022-10-18T17:47:04.431Z,22.30
2022-10-18T17:49:31.362Z,9.77
2022-10-18T17:52:01.098Z,8.80
2022-10-18T17:54:29.970Z,13.85
2022-10-18T17:56:56.822Z,18.92
2022-10-18T17:59:23.628Z,15.55
2022-10-18T18:01:50.412Z,15.25
2022-10-18T18:04:17.328Z,8.27
2022-10-18T18:06:45.450Z,13.20
2022-10-18T18:09:16.780Z,10.40
2022-10-18T18:11:44.794Z,13.30
2022-10-18T18:14:13.722Z,15.25
2022-10-18T18:16:42.125Z,13.40
2022-10-18T18:19:10.282Z,12.38
2022-10-18T18:21:40.865Z,13.45
2022-10-18T18:24:10.075Z,9.48
2022-10-18T18:26:38.090Z,14.38
2022-10-18T18:29:06.489Z,10.00
2022-10-18T18:31:38.869Z,15.48
2022-10-18T18:34:11.132Z,12.60
2022-10-18T18:36:39.064Z,25.35
2022-10-18T18:39:06.425Z,13.30
2022-10-18T18:41:33.742Z,19.77
2022-10-18T18:44:02.505Z,24.67
2022-10-18T18:46:33.712Z,14.07
2022-10-18T18:49:00.589Z,13.52
2022-10-18T18:51:27.703Z,21.03
2022-10-18T18:53:54.891Z,12.23
2022-10-18T18:56:23.967Z,11.73
2022-10-18T18:58:52.440Z,17.10
2022-10-18T19:01:25.273Z,16.02
2022-10-18T19:03:54.023Z,9.75
2022-10-18T19:06:23.725Z,16.83
2022-10-18T19:08:54.184Z,15.03
2022-10-18T19:11:22.628Z,10.65
2022-10-18T19:13:50.202Z,12.60
2022-10-18T19:16:20.600Z,12.57
2022-10-18T19:18:58.320Z,14.10
2022-10-18T19:21:26.177Z,11.53
2022-10-18T19:23:53.578Z,12.37
2022-10-18T19:26:26.520Z,13.53
2022-10-18T19:28:54.022Z,12.27
2022-10-18T19:31:21.503Z,9.70
2022-10-18T19:33:59.368Z,10.55
2022-10-18T19:36:27.018Z,14.70
2022-10-18T19:38:54.183Z,10.88
2022-10-18T19:41:21.684Z,12.47
2022-10-18T19:43:48.927Z,11.40
2022-10-18T19:46:16.246Z,13.13
2022-10-18T19:48:43.610Z,18.47
2022-10-18T19:51:12.256Z,15.17
2022-10-18T19:53:42.813Z,16.10
2022-10-18T19:56:10.481Z,9.30
2022-10-18T19:58:37.812Z,14.83
2022-10-18T20:01:05.147Z,14.10
2022-10-18T20:03:32.349Z,8.77
2022-10-18T20:06:00.553Z,10.37
2022-10-18T20:08:29.140Z,10.97
2022-10-18T20:10:57.962Z,14.77
2022-10-18T20:13:25.168Z,11.80
2022-10-18T20:15:52.657Z,11.17
2022-10-18T20:18:20.469Z,7.43
2022-10-18T20:20:48.537Z,14.67
2022-10-18T20:23:18.906Z,11.20
2022-10-18T20:26:02.192Z,9.90
2022-10-18T20:28:29.520Z,5.37
2022-10-18T20:31:16.967Z,11.87
2022-10-18T20:33:44.616Z,7.80
2022-10-18T20:36:13.091Z,9.37
2022-10-18T20:38:40.924Z,8.97
2022-10-18T20:41:09.596Z,11.10
2022-10-18T20:43:37.054Z,8.67
2022-10-18T20:46:04.603Z,6.85
2022-10-18T20:48:32.264Z,7.00
2022-10-18T20:51:03.790Z,10.20
2022-10-18T20:53:30.937Z,11.93
2022-10-18T20:56:08.473Z,9.53
2022-10-18T20:58:36.642Z,7.33
2022-10-18T21:01:07.100Z,11.93
2022-10-18T21:03:38.569Z,9.70
2022-10-18T21:06:12.500Z,9.93
2022-10-18T21:08:39.870Z,7.30
2022-10-18T21:11:07.422Z,8.37
2022-10-18T21:13:34.669Z,3.97
2022-10-18T21:16:02.523Z,7.77
2022-10-18T21:18:30.751Z,4.93
2022-10-18T21:21:07.237Z,8.30
2022-10-18T21:23:34.709Z,7.20
2022-10-18T21:26:01.939Z,9.63
2022-10-18T21:28:29.258Z,6.80
2022-10-18T21:30:57.924Z,9.73
2022-10-18T21:33:25.107Z,5.03
2022-10-18T21:35:51.845Z,12.60
2022-10-18T21:38:18.654Z,9.33
2022-10-18T21:40:45.395Z,7.00
2022-10-18T21:43:12.261Z,11.07
2022-10-18T21:45:39.067Z,12.03
2022-10-18T21:48:06.339Z,8.83
2022-10-18T21:50:34.606Z,5.73
2022-10-18T21:53:01.799Z,16.37
2022-10-18T21:55:29.003Z,7.43
2022-10-18T21:57:57.448Z,10.13
2022-10-18T22:00:24.640Z,6.97
2022-10-18T22:03:06.199Z,6.30
2022-10-18T22:05:33.421Z,9.13
2022-10-18T22:08:00.598Z,16.10
2022-10-18T22:10:27.811Z,8.27
2022-10-18T22:12:54.942Z,6.43
2022-10-18T22:15:22.097Z,10.40
2022-10-18T22:17:49.431Z,6.87
2022-10-18T22:20:16.673Z,9.53
2022-10-18T22:22:46.744Z,9.70
2022-10-18T22:25:14.768Z,5.67
2022-10-18T22:27:41.842Z,11.77
2022-10-18T22:30:09.389Z,10.03
2022-10-18T22:32:36.137Z,14.30
2022-10-18T22:35:02.967Z,10.27
2022-10-18T22:37:29.918Z,11.50
2022-10-18T22:39:56.726Z,8.57
2022-10-18T22:42:23.593Z,6.13
2022-10-18T22:44:50.376Z,9.53
2022-10-18T22:47:17.284Z,11.30
2022-10-18T22:49:44.529Z,11.67
2022-10-18T22:52:11.677Z,7.30
2022-10-18T22:54:38.935Z,10.87
2022-10-18T22:57:06.108Z,10.47
2022-10-18T22:59:34.521Z,10.33
2022-10-18T23:02:01.783Z,9.57
2022-10-18T23:04:29.031Z,7.50
2022-10-18T23:06:56.212Z,12.40
2022-10-18T23:09:23.369Z,12.00
2022-10-18T23:11:51.020Z,7.67
2022-10-18T23:14:18.254Z,12.50
2022-10-18T23:16:45.412Z,10.30
2022-10-18T23:19:15.358Z,9.83
2022-10-18T23:21:42.508Z,7.13
2022-10-18T23:24:09.877Z,9.90
2022-10-18T23:26:37.058Z,10.60
2022-10-18T23:29:04.333Z,7.87
2022-10-18T23:31:32.990Z,10.07
2022-10-18T23:34:04.225Z,9.43
2022-10-18T23:36:31.869Z,19.73
2022-10-18T23:38:59.431Z,8.30
2022-10-18T23:41:26.693Z,8.33
2022-10-18T23:43:55.916Z,10.00
2022-10-18T23:46:23.126Z,13.83
2022-10-18T23:48:50.505Z,7.30
2022-10-18T23:51:18.168Z,7.57
2022-10-18T23:53:45.565Z,9.77
2022-10-18T23:56:14.286Z,9.77
2022-10-18T23:58:41.828Z,7.67
